»·PEaware :: N6713B KIFP-KTRM

N6713B :: KIFP-KTRM

FLIGHT INFORMATION

Flight Status: Arrived
Operator: Privately registered:
United States
More flights under this callsign
Pilot: Wes Yin (14813)
Aircraft: DEHAVILLAND DASH 8 400
(DH8D)
More flights by this aircraft type
Origin: KIFP Laughlin/Bullhead Intl
United States
Destination: KTRM Desert Resorts Regl
United States
More flights between these airports :: More routes between these airports
Route: EED V208 TRM
File this flight plan on PilotEdge
Remarks: VFR FF
Altitude:
(Current/Filed)
12,500ft
Speed:
(Current/Filed)
250kts
Departed: 12-Aug-17 08:37 PM
Arrived: 12-Aug-17 09:11 PM
Distance/Time
Traveled:
121nm/0:34
Distance/Time
To Go:
Arrived

Flight Plot

Page will automatically refresh every two minutes.


Map Options




Map Legend


Flown Route
Filed Route
Departure Airport
Arrival Airport
Navaid (VOR, NDB)
Fix

Horizontal Profiles

Position Reports

Time Latitude Longitude Heading Altitude Ground
Speed
12-Aug-17 20:21 35.164676 -114.556351 86 648ft 0kts
12-Aug-17 20:22 35.164676 -114.556351 86 648ft 0kts
12-Aug-17 20:23 35.164676 -114.556351 86 648ft 0kts
12-Aug-17 20:24 35.164676 -114.556351 86 648ft 0kts
12-Aug-17 20:25 35.164676 -114.556351 86 648ft 0kts
12-Aug-17 20:26 35.164676 -114.556351 86 648ft 0kts
12-Aug-17 20:27 35.164676 -114.556351 86 648ft 0kts
12-Aug-17 20:28 35.164676 -114.556351 86 648ft 0kts
12-Aug-17 20:29 35.164676 -114.556351 86 648ft 0kts
12-Aug-17 20:30 35.164676 -114.556351 86 648ft 0kts
12-Aug-17 20:31 35.164676 -114.556351 86 648ft 0kts
12-Aug-17 20:32 35.164676 -114.556351 86 648ft 0kts
12-Aug-17 20:33 35.164676 -114.556351 86 648ft 0kts
12-Aug-17 20:34 35.164676 -114.556351 86 648ft 0kts
12-Aug-17 20:35 35.164807 -114.556202 10 648ft 2kts
12-Aug-17 20:36 35.165023 -114.556886 275 648ft 7kts
12-Aug-17 20:37 35.166197 -114.559185 269 648ft 0kts
12-Aug-17 20:38 35.166197 -114.559185 269 648ft 0kts
12-Aug-17 20:39 35.166197 -114.559362 269 648ft 10kts
12-Aug-17 20:40 35.156307 -114.559395 173 662ft 129kts
12-Aug-17 20:41 35.114423 -114.559296 180 3162ft 172kts
12-Aug-17 20:42 35.062620 -114.550172 167 5965ft 196kts
12-Aug-17 20:43 35.007961 -114.535663 166 8603ft 204kts
12-Aug-17 20:44 34.951241 -114.518125 166 10924ft 215kts
12-Aug-17 20:45 34.890198 -114.499988 166 12474ft 240kts
12-Aug-17 20:46 34.822970 -114.479402 165 12479ft 254kts
12-Aug-17 20:47 34.751807 -114.459075 177 12411ft 276kts
12-Aug-17 20:48 34.703322 -114.520058 265 12433ft 285kts
12-Aug-17 20:49 34.676044 -114.608803 233 12416ft 289kts
12-Aug-17 20:50 34.626447 -114.686136 230 12418ft 290kts
12-Aug-17 20:51 34.575634 -114.762212 230 12422ft 290kts
12-Aug-17 20:52 34.524975 -114.838403 230 12426ft 291kts
12-Aug-17 20:53 34.474081 -114.914753 230 12428ft 289kts
12-Aug-17 20:54 34.423891 -114.989875 230 12437ft 286kts
12-Aug-17 20:55 34.373487 -115.065118 230 12444ft 289kts
12-Aug-17 20:56 34.322819 -115.140643 230 12456ft 290kts
12-Aug-17 20:57 34.271775 -115.216524 230 12403ft 293kts
12-Aug-17 20:58 34.220214 -115.293147 230 12379ft 293kts
12-Aug-17 20:59 34.168777 -115.369210 230 12382ft 293kts
12-Aug-17 21:00 34.117323 -115.445228 230 12386ft 293kts
12-Aug-17 21:01 34.065614 -115.521458 230 12387ft 293kts
12-Aug-17 21:02 34.014023 -115.597380 230 12388ft 293kts
12-Aug-17 21:03 33.962142 -115.673641 230 12386ft 294kts
12-Aug-17 21:04 33.910566 -115.749097 230 12359ft 295kts
12-Aug-17 21:05 33.860868 -115.821918 230 10591ft 258kts
12-Aug-17 21:06 33.831136 -115.893280 242 9189ft 231kts
12-Aug-17 21:07 33.803056 -115.958715 241 7892ft 212kts
12-Aug-17 21:08 33.776593 -116.019898 241 6668ft 200kts
12-Aug-17 21:09 33.751607 -116.077536 241 5525ft 190kts
12-Aug-17 21:10 33.727887 -116.132316 241 4447ft 181kts
12-Aug-17 21:11 33.704092 -116.186118 232 3427ft 184kts
12-Aug-17 21:12 33.660180 -116.201075 155 1655ft 178kts
12-Aug-17 21:13 33.625324 -116.165197 135 -105ft 122kts
12-Aug-17 21:14 33.620560 -116.158424 90 -106ft 9kts
12-Aug-17 21:15 33.624561 -116.157714 359 -106ft 18kts
12-Aug-17 21:16 33.630775 -116.157721 358 -106ft 19kts
12-Aug-17 21:17 33.634207 -116.159778 290 -106ft 14kts
12-Aug-17 21:18 33.634990 -116.160076 358 -106ft 0kts
12-Aug-17 21:19 33.634990 -116.160076 358 -106ft 0kts
12-Aug-17 21:20 33.634990 -116.160076 358 -106ft 0kts
12-Aug-17 21:22 33.634990 -116.160076 358 -106ft 0kts
12-Aug-17 21:23 33.634990 -116.160076 358 -106ft 0kts
12-Aug-17 21:24 33.634990 -116.160076 358 -106ft 0kts
12-Aug-17 21:25 33.634990 -116.160076 358 -106ft 0kts
12-Aug-17 21:26 33.634990 -116.160076 358 -106ft 0kts
12-Aug-17 21:27 33.634990 -116.160076 358 -106ft 0kts

Navigation Log

Ident Type
1. KIFP Airport
2. EED Navaid
3. TNP Navaid
4. CLOWD Fix
5. CONES Fix
6. TRM Navaid
7. KTRM Airport